Time;durP1;ratioP1;P1;durP2;ratioP2;P2;SDS_P1;SDS_P2;PMS_P1;PMS_P2;Temp;Humidity;BMP_temperature;BMP_pressure;BME280_temperature;BME280_humidity;BME280_pressure;Samples;Min_cycle;Max_cycle;Signal;HPM_P1;HPM_P2
2022/07/23 00:00:21;;;;;;;10.85;9.35;;;;;;;;;;5129473;27;20199;-67
2022/07/23 00:02:48;;;;;;;10.23;9.25;;;;;;;;;;5108017;27;20207;-67
2022/07/23 00:05:16;;;;;;;11.20;9.45;;;;;;;;;;5112046;27;20196;-68
2022/07/23 00:07:44;;;;;;;11.23;9.57;;;;;;;;;;5101767;27;20219;-68
2022/07/23 00:10:11;;;;;;;10.60;8.90;;;;;;;;;;5109293;27;20231;-68
2022/07/23 00:12:39;;;;;;;10.00;9.00;;;;;;;;;;5102682;27;20256;-68
2022/07/23 00:15:18;;;;;;;10.98;9.98;;;;;;;;;;5106490;27;20221;-68
2022/07/23 00:17:46;;;;;;;12.55;9.93;;;;;;;;;;5109625;27;20758;-67
2022/07/23 00:20:13;;;;;;;13.40;9.85;;;;;;;;;;5110531;27;20218;-67
2022/07/23 00:22:50;;;;;;;10.80;9.80;;;;;;;;;;5125795;27;20203;-67
2022/07/23 00:25:18;;;;;;;12.93;9.85;;;;;;;;;;5105533;27;20288;-68
2022/07/23 00:27:57;;;;;;;10.50;9.50;;;;;;;;;;5108752;27;20227;-67
2022/07/23 00:30:25;;;;;;;11.52;10.32;;;;;;;;;;5106463;27;20231;-67
2022/07/23 00:33:03;;;;;;;11.70;9.93;;;;;;;;;;5113520;27;20219;-67
2022/07/23 00:35:32;;;;;;;11.80;10.15;;;;;;;;;;5106957;27;20274;-67
2022/07/23 00:38:00;;;;;;;11.57;9.75;;;;;;;;;;5107117;27;20362;-67
2022/07/23 00:40:28;;;;;;;11.43;9.55;;;;;;;;;;5107113;27;20256;-68
2022/07/23 00:42:55;;;;;;;11.18;9.73;;;;;;;;;;5107399;27;20688;-68
2022/07/23 00:45:22;;;;;;;11.32;9.40;;;;;;;;;;5114649;27;20217;-67
2022/07/23 00:47:50;;;;;;;10.52;9.52;;;;;;;;;;5090639;27;20223;-67
2022/07/23 00:50:17;;;;;;;12.10;10.32;;;;;;;;;;5111711;27;20227;-67
2022/07/23 00:52:45;;;;;;;12.80;9.52;;;;;;;;;;5113186;27;20200;-68
2022/07/23 00:55:13;;;;;;;12.70;10.00;;;;;;;;;;5116662;27;20285;-68
2022/07/23 00:57:42;;;;;;;10.50;9.40;;;;;;;;;;5105864;28;20224;-67
2022/07/23 01:00:11;;;;;;;9.93;8.95;;;;;;;;;;5103206;27;20264;-67
2022/07/23 01:02:39;;;;;;;11.55;9.30;;;;;;;;;;5120160;27;20208;-68
2022/07/23 01:05:07;;;;;;;9.70;8.52;;;;;;;;;;5109828;27;20200;-68
2022/07/23 01:07:36;;;;;;;8.68;7.93;;;;;;;;;;5104240;27;20224;-68
2022/07/23 01:10:03;;;;;;;8.93;8.02;;;;;;;;;;5102594;27;20228;-68
2022/07/23 01:12:33;;;;;;;9.85;8.82;;;;;;;;;;5102065;27;20204;-68
2022/07/23 01:15:00;;;;;;;10.85;9.52;;;;;;;;;;5098409;27;20200;-68
2022/07/23 01:17:27;;;;;;;8.95;8.15;;;;;;;;;;5095299;27;20223;-67
2022/07/23 01:19:55;;;;;;;10.45;8.30;;;;;;;;;;5106812;27;20250;-68
2022/07/23 01:22:23;;;;;;;9.00;8.20;;;;;;;;;;5105457;27;20203;-67
2022/07/23 01:24:50;;;;;;;8.35;7.55;;;;;;;;;;5106282;27;20222;-68
2022/07/23 01:27:19;;;;;;;9.55;8.32;;;;;;;;;;5104123;27;20291;-68
2022/07/23 01:29:46;;;;;;;9.95;8.77;;;;;;;;;;5104497;27;20227;-67
2022/07/23 01:32:14;;;;;;;9.45;8.52;;;;;;;;;;5124439;27;20599;-68
2022/07/23 01:34:41;;;;;;;9.18;7.85;;;;;;;;;;5103850;27;20204;-68
2022/07/23 01:37:09;;;;;;;9.98;8.10;;;;;;;;;;5102388;27;20211;-68
2022/07/23 01:39:36;;;;;;;8.75;8.05;;;;;;;;;;5099989;27;20204;-67
2022/07/23 01:42:03;;;;;;;9.18;8.20;;;;;;;;;;5107052;27;20203;-68
2022/07/23 01:44:34;;;;;;;8.27;7.38;;;;;;;;;;5105035;27;20256;-67
2022/07/23 01:47:01;;;;;;;8.52;7.72;;;;;;;;;;5106410;27;20228;-67
2022/07/23 01:49:28;;;;;;;8.65;7.70;;;;;;;;;;5105086;27;20223;-67
2022/07/23 01:52:00;;;;;;;8.70;7.88;;;;;;;;;;5108354;27;20555;-68
2022/07/23 01:54:28;;;;;;;9.43;7.60;;;;;;;;;;5105959;27;21771;-67
2022/07/23 01:56:56;;;;;;;8.35;7.50;;;;;;;;;;5120006;27;20228;-67
2022/07/23 01:59:23;;;;;;;8.57;7.68;;;;;;;;;;5104754;27;20204;-68
2022/07/23 02:01:51;;;;;;;11.32;7.30;;;;;;;;;;5108146;27;20199;-67
2022/07/23 02:04:19;;;;;;;9.55;8.60;;;;;;;;;;5096537;27;20268;-67
2022/07/23 02:06:46;;;;;;;9.30;8.10;;;;;;;;;;5102521;27;20626;-67
2022/07/23 02:09:14;;;;;;;9.02;7.72;;;;;;;;;;5108877;27;20227;-68
2022/07/23 02:11:41;;;;;;;10.90;7.85;;;;;;;;;;5112360;27;20286;-67
2022/07/23 02:14:09;;;;;;;8.85;8.05;;;;;;;;;;5107797;27;20203;-68
2022/07/23 02:16:36;;;;;;;9.38;8.48;;;;;;;;;;5107549;27;20702;-68
2022/07/23 02:19:04;;;;;;;9.68;8.52;;;;;;;;;;5094343;27;20295;-68
2022/07/23 02:21:32;;;;;;;9.20;8.25;;;;;;;;;;5103515;27;20289;-68
2022/07/23 02:24:00;;;;;;;11.15;8.70;;;;;;;;;;5099364;27;20195;-68
2022/07/23 02:26:27;;;;;;;9.98;8.55;;;;;;;;;;5095350;27;20285;-65
2022/07/23 02:28:54;;;;;;;9.82;8.82;;;;;;;;;;5103410;27;20199;-68
2022/07/23 02:31:22;;;;;;;9.50;8.57;;;;;;;;;;5106885;27;20261;-68
2022/07/23 02:33:49;;;;;;;9.93;8.98;;;;;;;;;;5107215;27;20216;-68
2022/07/23 02:36:17;;;;;;;9.95;9.00;;;;;;;;;;5102478;27;20566;-68
2022/07/23 02:38:45;;;;;;;9.95;8.95;;;;;;;;;;5104150;27;20218;-68
2022/07/23 02:41:12;;;;;;;10.40;9.35;;;;;;;;;;5101577;27;20193;-67
2022/07/23 02:43:40;;;;;;;10.27;9.27;;;;;;;;;;5100662;27;20203;-69
2022/07/23 02:46:07;;;;;;;10.48;9.40;;;;;;;;;;5105244;27;20609;-67
2022/07/23 02:48:34;;;;;;;10.70;9.57;;;;;;;;;;5102450;28;20223;-68
2022/07/23 02:51:02;;;;;;;9.98;8.98;;;;;;;;;;5102942;27;20235;-67
2022/07/23 02:53:32;;;;;;;10.38;9.20;;;;;;;;;;5101018;28;20726;-67
2022/07/23 02:56:00;;;;;;;9.48;8.68;;;;;;;;;;5101810;27;20211;-67
2022/07/23 02:58:27;;;;;;;9.80;8.80;;;;;;;;;;5106285;28;20204;-68
2022/07/23 03:00:55;;;;;;;9.45;8.45;;;;;;;;;;5104868;28;20207;-67
2022/07/23 03:03:22;;;;;;;12.77;8.82;;;;;;;;;;5105392;28;20762;-67
2022/07/23 03:05:56;;;;;;;9.57;8.68;;;;;;;;;;5101675;27;20223;-67
2022/07/23 03:08:26;;;;;;;10.50;9.48;;;;;;;;;;5102067;28;20268;-66
2022/07/23 03:10:53;;;;;;;10.50;9.48;;;;;;;;;;5100871;28;20230;-68
2022/07/23 03:13:21;;;;;;;10.82;9.43;;;;;;;;;;5109670;28;20203;-66
2022/07/23 03:15:48;;;;;;;11.50;9.00;;;;;;;;;;5105134;28;20196;-67
2022/07/23 03:18:15;;;;;;;18.17;10.55;;;;;;;;;;5109358;28;20693;-67
2022/07/23 03:20:43;;;;;;;10.55;9.45;;;;;;;;;;5103734;28;20248;-67
2022/07/23 03:23:10;;;;;;;11.07;9.90;;;;;;;;;;5117590;27;20287;-67
2022/07/23 03:25:38;;;;;;;12.57;9.68;;;;;;;;;;5098390;27;20575;-67
2022/07/23 03:28:05;;;;;;;10.38;8.73;;;;;;;;;;5110671;28;20211;-67
2022/07/23 03:30:33;;;;;;;10.13;8.93;;;;;;;;;;5101634;28;20657;-67
2022/07/23 03:33:00;;;;;;;10.60;9.50;;;;;;;;;;5101359;27;20195;-67
2022/07/23 03:35:27;;;;;;;10.07;9.15;;;;;;;;;;5104635;28;20200;-67
2022/07/23 03:37:55;;;;;;;11.40;9.77;;;;;;;;;;5107082;28;20626;-67
2022/07/23 03:40:22;;;;;;;10.30;9.40;;;;;;;;;;5096211;27;23542;-68
2022/07/23 03:42:50;;;;;;;11.27;10.23;;;;;;;;;;5122389;28;20296;-66
2022/07/23 03:45:17;;;;;;;9.70;8.80;;;;;;;;;;5109482;27;20211;-68
2022/07/23 03:47:45;;;;;;;10.40;9.35;;;;;;;;;;5106382;28;20300;-67
2022/07/23 03:50:12;;;;;;;13.48;9.57;;;;;;;;;;5104639;27;20769;-66
2022/07/23 03:52:40;;;;;;;21.42;15.35;;;;;;;;;;5125633;27;20226;-67
2022/07/23 03:55:07;;;;;;;10.73;9.60;;;;;;;;;;5104498;27;20647;-68
2022/07/23 03:57:35;;;;;;;10.77;9.70;;;;;;;;;;5113470;27;20219;-67
2022/07/23 04:00:04;;;;;;;9.85;8.95;;;;;;;;;;5108995;27;20261;-68
2022/07/23 04:02:31;;;;;;;12.88;9.93;;;;;;;;;;5109168;27;20508;-67
2022/07/23 04:05:00;;;;;;;10.32;9.43;;;;;;;;;;5132739;27;20593;-67
2022/07/23 04:07:28;;;;;;;11.57;9.82;;;;;;;;;;5108030;27;20327;-67
2022/07/23 04:09:55;;;;;;;11.30;9.98;;;;;;;;;;5105450;27;20223;-68
2022/07/23 04:12:23;;;;;;;11.23;9.73;;;;;;;;;;5107026;27;20290;-67
2022/07/23 04:14:50;;;;;;;10.57;9.65;;;;;;;;;;5120177;27;20235;-68
2022/07/23 04:17:18;;;;;;;11.60;9.95;;;;;;;;;;5106874;27;20257;-67
2022/07/23 04:19:45;;;;;;;10.82;9.68;;;;;;;;;;5106210;27;20207;-68
2022/07/23 04:22:12;;;;;;;11.30;10.30;;;;;;;;;;5111173;27;20716;-68
2022/07/23 04:24:40;;;;;;;10.30;9.40;;;;;;;;;;5102755;27;20208;-67
2022/07/23 04:27:07;;;;;;;10.60;9.43;;;;;;;;;;5102904;27;20277;-67
2022/07/23 04:29:35;;;;;;;10.30;9.20;;;;;;;;;;5108679;27;20813;-67
2022/07/23 04:32:02;;;;;;;11.20;9.50;;;;;;;;;;5109762;27;20614;-67
2022/07/23 04:34:30;;;;;;;10.70;9.48;;;;;;;;;;5103262;27;20299;-66
2022/07/23 04:36:57;;;;;;;14.18;10.23;;;;;;;;;;5127079;27;20226;-66
2022/07/23 04:39:24;;;;;;;11.00;9.85;;;;;;;;;;5113665;27;20286;-67
2022/07/23 04:41:52;;;;;;;11.35;9.88;;;;;;;;;;5106642;27;20204;-67
2022/07/23 04:44:19;;;;;;;10.73;9.45;;;;;;;;;;5105227;27;20199;-67
2022/07/23 04:46:46;;;;;;;10.70;9.43;;;;;;;;;;5112292;27;20234;-68
2022/07/23 04:49:16;;;;;;;10.43;9.30;;;;;;;;;;5110618;27;20781;-67
2022/07/23 04:51:45;;;;;;;9.73;8.70;;;;;;;;;;5113298;27;20722;-67
2022/07/23 04:54:12;;;;;;;12.55;9.27;;;;;;;;;;5104319;27;20272;-67
2022/07/23 04:56:41;;;;;;;12.13;9.90;;;;;;;;;;5110942;27;20237;-67
2022/07/23 04:59:08;;;;;;;10.05;9.02;;;;;;;;;;5101051;28;20308;-67
2022/07/23 05:01:35;;;;;;;10.65;9.57;;;;;;;;;;5107819;27;20269;-67
2022/07/23 05:04:03;;;;;;;12.80;9.32;;;;;;;;;;5105150;27;20682;-67
2022/07/23 05:06:31;;;;;;;10.18;9.15;;;;;;;;;;5104923;27;20235;-67
2022/07/23 05:08:58;;;;;;;17.35;9.88;;;;;;;;;;5109756;27;20203;-66
2022/07/23 05:11:26;;;;;;;17.48;11.05;;;;;;;;;;5110080;27;20228;-67
2022/07/23 05:13:55;;;;;;;14.23;11.02;;;;;;;;;;5109950;27;20207;-67
2022/07/23 05:16:22;;;;;;;11.85;9.45;;;;;;;;;;5126243;27;20224;-67
2022/07/23 05:18:50;;;;;;;10.50;9.30;;;;;;;;;;5108490;27;20287;-67
2022/07/23 05:21:17;;;;;;;10.73;9.60;;;;;;;;;;5109476;27;20277;-67
2022/07/23 05:23:45;;;;;;;12.45;9.60;;;;;;;;;;5110144;27;20212;-67
2022/07/23 05:26:13;;;;;;;12.02;9.60;;;;;;;;;;5105660;28;20228;-67
2022/07/23 05:28:40;;;;;;;10.68;9.35;;;;;;;;;;5105744;27;20207;-67
2022/07/23 05:31:14;;;;;;;12.02;9.73;;;;;;;;;;5109057;27;20227;-67
2022/07/23 05:33:41;;;;;;;11.68;9.63;;;;;;;;;;5107038;27;20201;-67
2022/07/23 05:36:09;;;;;;;16.63;14.93;;;;;;;;;;5106580;27;20613;-67
2022/07/23 05:38:36;;;;;;;10.20;9.27;;;;;;;;;;5105972;27;20202;-67
2022/07/23 05:41:04;;;;;;;8.70;7.90;;;;;;;;;;5106029;27;20207;-67
2022/07/23 05:43:31;;;;;;;8.13;7.10;;;;;;;;;;5099274;27;20214;-67
2022/07/23 05:45:59;;;;;;;7.43;6.72;;;;;;;;;;5104908;27;20284;-68
2022/07/23 05:48:26;;;;;;;8.00;7.20;;;;;;;;;;5106915;27;20203;-68
2022/07/23 05:50:54;;;;;;;8.40;6.68;;;;;;;;;;5105355;27;20215;-67
2022/07/23 05:53:22;;;;;;;8.43;6.47;;;;;;;;;;5107738;27;20260;-68
2022/07/23 05:55:49;;;;;;;7.43;6.72;;;;;;;;;;5106374;27;20577;-68
2022/07/23 05:58:16;;;;;;;7.32;6.55;;;;;;;;;;5112277;27;20200;-68
2022/07/23 06:00:45;;;;;;;6.53;5.95;;;;;;;;;;5107819;27;20207;-67
2022/07/23 06:03:12;;;;;;;6.43;5.80;;;;;;;;;;5112009;27;20260;-68
2022/07/23 06:05:40;;;;;;;6.43;5.78;;;;;;;;;;5105121;27;20210;-68
2022/07/23 06:08:07;;;;;;;6.88;5.85;;;;;;;;;;5113641;27;20214;-68
2022/07/23 06:10:34;;;;;;;6.57;5.88;;;;;;;;;;5106167;27;20762;-68
2022/07/23 06:13:02;;;;;;;6.47;5.90;;;;;;;;;;5108484;27;20206;-68
2022/07/23 06:15:30;;;;;;;5.90;5.38;;;;;;;;;;5108008;28;20204;-68
2022/07/23 06:17:57;;;;;;;5.70;5.28;;;;;;;;;;5109329;27;20225;-67
2022/07/23 06:20:25;;;;;;;6.50;5.53;;;;;;;;;;5090452;27;20255;-68
2022/07/23 06:22:52;;;;;;;6.85;6.18;;;;;;;;;;5094068;27;20219;-67
2022/07/23 06:25:20;;;;;;;7.10;6.40;;;;;;;;;;5093353;27;20207;-68
2022/07/23 06:27:48;;;;;;;8.07;6.72;;;;;;;;;;5089096;27;20230;-68
2022/07/23 06:30:18;;;;;;;7.18;6.47;;;;;;;;;;5091701;27;20215;-67
2022/07/23 06:32:47;;;;;;;6.68;6.07;;;;;;;;;;5097501;27;20239;-68
2022/07/23 06:35:15;;;;;;;7.45;6.68;;;;;;;;;;5106998;27;20216;-67
2022/07/23 06:37:43;;;;;;;10.30;7.30;;;;;;;;;;5121247;27;20318;-67
2022/07/23 06:40:12;;;;;;;9.00;6.80;;;;;;;;;;5103913;27;20207;-68
2022/07/23 06:42:40;;;;;;;7.07;6.35;;;;;;;;;;5094836;27;20199;-68
2022/07/23 06:45:08;;;;;;;7.10;6.50;;;;;;;;;;5097648;27;20707;-67
2022/07/23 06:47:35;;;;;;;8.02;7.13;;;;;;;;;;5105976;27;20223;-67
2022/07/23 06:50:03;;;;;;;7.53;6.82;;;;;;;;;;5104332;27;20608;-67
2022/07/23 06:52:30;;;;;;;7.10;6.40;;;;;;;;;;5106223;27;20211;-67
2022/07/23 06:54:58;;;;;;;7.20;6.60;;;;;;;;;;5104161;28;20779;-68
2022/07/23 06:57:25;;;;;;;8.52;6.95;;;;;;;;;;5104058;27;20224;-67
2022/07/23 06:59:53;;;;;;;7.32;6.63;;;;;;;;;;5104188;28;20195;-68
2022/07/23 07:02:22;;;;;;;7.30;6.57;;;;;;;;;;5102382;28;20204;-66
2022/07/23 07:04:50;;;;;;;7.47;6.88;;;;;;;;;;5101143;28;20245;-67
2022/07/23 07:07:17;;;;;;;7.03;6.32;;;;;;;;;;5111580;27;20227;-68
2022/07/23 07:09:45;;;;;;;6.80;6.20;;;;;;;;;;5107195;28;20211;-66
2022/07/23 07:12:14;;;;;;;6.80;6.30;;;;;;;;;;5109089;27;20242;-68
2022/07/23 07:14:41;;;;;;;6.68;6.10;;;;;;;;;;5123822;27;20206;-68
2022/07/23 07:17:10;;;;;;;6.70;6.00;;;;;;;;;;5102325;28;20231;-67
2022/07/23 07:19:38;;;;;;;6.65;6.07;;;;;;;;;;5102525;28;20196;-68
2022/07/23 07:22:07;;;;;;;6.43;5.93;;;;;;;;;;5101215;27;20219;-67
2022/07/23 07:24:35;;;;;;;6.13;5.63;;;;;;;;;;5121140;27;20200;-67
2022/07/23 07:27:05;;;;;;;5.97;5.47;;;;;;;;;;5109789;27;20827;-68
2022/07/23 07:29:33;;;;;;;7.38;6.05;;;;;;;;;;5107053;27;20219;-68
2022/07/23 07:32:00;;;;;;;6.32;5.70;;;;;;;;;;5106816;27;20706;-68
2022/07/23 07:34:27;;;;;;;6.03;5.40;;;;;;;;;;5108445;27;20208;-68
2022/07/23 07:36:56;;;;;;;6.57;5.97;;;;;;;;;;5111270;27;20241;-66
2022/07/23 07:39:23;;;;;;;6.63;6.13;;;;;;;;;;5113011;27;20222;-68
2022/07/23 07:41:51;;;;;;;6.65;6.10;;;;;;;;;;5105125;27;20208;-69
2022/07/23 07:44:18;;;;;;;5.97;5.47;;;;;;;;;;5105584;27;20211;-68
2022/07/23 07:46:46;;;;;;;6.78;6.18;;;;;;;;;;5105469;27;20254;-67
2022/07/23 07:49:13;;;;;;;6.78;6.07;;;;;;;;;;5107954;27;20235;-69
2022/07/23 07:51:42;;;;;;;6.95;6.30;;;;;;;;;;5107130;27;20235;-65
2022/07/23 07:54:11;;;;;;;6.75;6.00;;;;;;;;;;5115082;27;20199;-67
2022/07/23 07:56:40;;;;;;;6.68;6.07;;;;;;;;;;5104152;27;20224;-66
2022/07/23 07:59:08;;;;;;;6.43;5.47;;;;;;;;;;5116088;27;20200;-67
2022/07/23 08:01:37;;;;;;;6.10;5.50;;;;;;;;;;5116694;27;20212;-67
2022/07/23 08:04:04;;;;;;;5.97;5.50;;;;;;;;;;5118472;27;20658;-67
2022/07/23 08:06:32;;;;;;;5.88;5.28;;;;;;;;;;5095594;27;20230;-67
2022/07/23 08:09:00;;;;;;;6.13;5.53;;;;;;;;;;5099442;27;20230;-67
2022/07/23 08:11:27;;;;;;;6.15;5.55;;;;;;;;;;5098942;27;20231;-67
2022/07/23 08:13:55;;;;;;;6.53;6.03;;;;;;;;;;5094994;27;20211;-66
2022/07/23 08:16:22;;;;;;;7.38;5.88;;;;;;;;;;5091570;27;20417;-67
2022/07/23 08:18:50;;;;;;;5.88;5.45;;;;;;;;;;5097080;27;20211;-67
2022/07/23 08:21:17;;;;;;;5.70;5.20;;;;;;;;;;5121555;27;20231;-67
2022/07/23 08:23:45;;;;;;;5.93;5.32;;;;;;;;;;5109244;27;20207;-67
2022/07/23 08:26:12;;;;;;;6.05;5.45;;;;;;;;;;5126783;27;20218;-67
2022/07/23 08:28:39;;;;;;;6.35;5.18;;;;;;;;;;5106912;27;20203;-67
2022/07/23 08:31:07;;;;;;;5.82;5.35;;;;;;;;;;5102859;27;20322;-67
2022/07/23 08:33:34;;;;;;;6.25;5.65;;;;;;;;;;5101560;27;20292;-67
2022/07/23 08:36:03;;;;;;;5.70;5.20;;;;;;;;;;5104572;27;20223;-66
2022/07/23 08:38:32;;;;;;;6.15;5.65;;;;;;;;;;5100831;27;20242;-66
2022/07/23 08:40:59;;;;;;;5.65;5.25;;;;;;;;;;5107597;27;20285;-66
2022/07/23 08:43:27;;;;;;;7.65;5.82;;;;;;;;;;5107212;27;20291;-66
2022/07/23 08:45:56;;;;;;;6.70;6.20;;;;;;;;;;5109245;27;20203;-66
2022/07/23 08:48:25;;;;;;;6.45;5.88;;;;;;;;;;5106905;27;20214;-67
2022/07/23 08:50:55;;;;;;;7.22;6.53;;;;;;;;;;5106002;27;20223;-67
2022/07/23 08:53:25;;;;;;;6.63;5.93;;;;;;;;;;5106334;27;20653;-66
2022/07/23 08:55:57;;;;;;;6.65;6.15;;;;;;;;;;5096341;27;20219;-66
2022/07/23 08:58:25;;;;;;;7.10;6.40;;;;;;;;;;5107076;27;20251;-66
2022/07/23 09:00:56;;;;;;;6.80;6.07;;;;;;;;;;5105153;27;20211;-66
2022/07/23 09:03:25;;;;;;;8.15;6.47;;;;;;;;;;5103841;27;20366;-66
2022/07/23 09:05:55;;;;;;;6.78;6.22;;;;;;;;;;5105632;27;20208;-66
2022/07/23 09:08:24;;;;;;;6.88;6.28;;;;;;;;;;5104393;27;20214;-66
2022/07/23 09:11:02;;;;;;;7.00;6.47;;;;;;;;;;5100221;27;20204;-66
2022/07/23 09:13:29;;;;;;;6.55;6.05;;;;;;;;;;5124907;27;20211;-66
2022/07/23 09:16:16;;;;;;;7.80;7.20;;;;;;;;;;5106536;27;20636;-66
2022/07/23 09:18:48;;;;;;;7.00;6.45;;;;;;;;;;5103593;27;20840;-66
2022/07/23 09:21:17;;;;;;;7.40;6.70;;;;;;;;;;5104429;27;20207;-66
2022/07/23 09:23:44;;;;;;;7.13;6.53;;;;;;;;;;5103803;27;20238;-67
2022/07/23 09:26:19;;;;;;;7.47;6.78;;;;;;;;;;5104982;27;20689;-67
2022/07/23 09:28:57;;;;;;;6.82;6.18;;;;;;;;;;5111453;27;20206;-66
2022/07/23 09:31:26;;;;;;;6.82;6.30;;;;;;;;;;5106086;27;20629;-66
2022/07/23 09:34:07;;;;;;;7.00;6.40;;;;;;;;;;5101126;27;20210;-66
2022/07/23 09:36:34;;;;;;;6.75;6.25;;;;;;;;;;5102672;27;21457;-66
2022/07/23 09:39:02;;;;;;;7.57;6.88;;;;;;;;;;5104052;27;20199;-66
2022/07/23 09:41:43;;;;;;;7.32;6.72;;;;;;;;;;5108134;27;20213;-66
2022/07/23 09:44:13;;;;;;;7.82;7.03;;;;;;;;;;5105514;27;20203;-66
2022/07/23 09:46:40;;;;;;;6.72;6.05;;;;;;;;;;5104258;27;20244;-66
2022/07/23 09:49:12;;;;;;;7.32;6.72;;;;;;;;;;5103405;27;20200;-66
2022/07/23 09:51:46;;;;;;;7.57;6.97;;;;;;;;;;5106219;27;20227;-66
2022/07/23 09:54:25;;;;;;;7.30;6.60;;;;;;;;;;5105080;27;20256;-66
2022/07/23 09:56:53;;;;;;;7.20;6.60;;;;;;;;;;5105496;27;20220;-66
2022/07/23 09:59:31;;;;;;;7.28;6.68;;;;;;;;;;5109489;27;20666;-66
2022/07/23 10:01:59;;;;;;;7.80;7.10;;;;;;;;;;5103216;27;20739;-66
2022/07/23 10:04:28;;;;;;;7.55;6.85;;;;;;;;;;5102564;27;20283;-66
2022/07/23 10:06:57;;;;;;;7.70;7.03;;;;;;;;;;5119655;27;20231;-66
2022/07/23 10:09:27;;;;;;;7.05;6.45;;;;;;;;;;5103304;27;20268;-66
2022/07/23 10:12:06;;;;;;;6.88;6.38;;;;;;;;;;5102962;27;20223;-66
2022/07/23 10:14:34;;;;;;;7.70;7.07;;;;;;;;;;5103669;27;20238;-66
2022/07/23 10:17:03;;;;;;;7.57;6.97;;;;;;;;;;5102178;27;20219;-66
2022/07/23 10:19:31;;;;;;;6.88;6.28;;;;;;;;;;5101787;27;20237;-66
2022/07/23 10:22:00;;;;;;;7.38;6.78;;;;;;;;;;5104669;27;20508;-66
2022/07/23 10:24:47;;;;;;;7.60;6.85;;;;;;;;;;5103781;27;20263;-66
2022/07/23 10:27:54;;;;;;;7.70;7.10;;;;;;;;;;5101568;27;20223;-66
2022/07/23 10:30:34;;;;;;;7.80;7.18;;;;;;;;;;5036904;28;20217;-66
2022/07/23 10:33:20;;;;;;;7.65;7.05;;;;;;;;;;5066896;27;20288;-66
2022/07/23 10:35:53;;;;;;;7.88;7.15;;;;;;;;;;5107690;27;20208;-66
2022/07/23 10:38:41;;;;;;;7.80;7.20;;;;;;;;;;5104697;28;20207;-66
2022/07/23 10:41:08;;;;;;;7.85;7.15;;;;;;;;;;5096507;27;20212;-66
2022/07/23 10:43:35;;;;;;;8.80;7.97;;;;;;;;;;5101776;27;20203;-65
2022/07/23 10:49:20;;;;;;;7.22;6.63;;;;;;;;;;5118058;27;20252;-66
2022/07/23 10:52:11;;;;;;;8.18;7.50;;;;;;;;;;5100170;27;20239;-66
2022/07/23 10:54:41;;;;;;;7.45;6.68;;;;;;;;;;5095879;27;20203;-65
2022/07/23 10:57:10;;;;;;;7.68;6.97;;;;;;;;;;5098974;27;20766;-65
2022/07/23 10:59:56;;;;;;;6.75;6.15;;;;;;;;;;5101995;27;20198;-66
2022/07/23 11:02:24;;;;;;;8.48;7.78;;;;;;;;;;5106584;27;20214;-66
2022/07/23 11:04:52;;;;;;;8.40;7.63;;;;;;;;;;5106019;27;20207;-66
2022/07/23 11:07:19;;;;;;;6.93;6.10;;;;;;;;;;5102486;27;20237;-65
2022/07/23 11:09:48;;;;;;;7.05;6.35;;;;;;;;;;5118220;27;20211;-66
2022/07/23 11:12:20;;;;;;;6.88;6.20;;;;;;;;;;5103363;27;20337;-66
2022/07/23 11:15:00;;;;;;;7.90;7.20;;;;;;;;;;5103039;28;20211;-66
2022/07/23 11:17:27;;;;;;;8.18;7.45;;;;;;;;;;5102315;28;21876;-66
2022/07/23 11:20:15;;;;;;;7.55;6.85;;;;;;;;;;5102792;28;20705;-66
2022/07/23 11:22:42;;;;;;;7.60;7.00;;;;;;;;;;5103861;28;20206;-65
2022/07/23 11:25:10;;;;;;;6.85;6.35;;;;;;;;;;5108174;28;20282;-66
2022/07/23 11:27:42;;;;;;;7.20;6.60;;;;;;;;;;5098233;28;20228;-66
2022/07/23 11:30:28;;;;;;;7.60;6.68;;;;;;;;;;5099741;28;20621;-66
2022/07/23 11:33:16;;;;;;;6.75;6.13;;;;;;;;;;5099788;28;20224;-66
2022/07/23 11:35:49;;;;;;;7.93;6.32;;;;;;;;;;5100855;27;20551;-65
2022/07/23 11:38:20;;;;;;;7.22;6.63;;;;;;;;;;5103489;28;20211;-65
2022/07/23 11:40:51;;;;;;;7.70;7.10;;;;;;;;;;5121782;27;20268;-66
2022/07/23 11:43:19;;;;;;;7.32;6.72;;;;;;;;;;5118538;27;20200;-65
2022/07/23 11:45:48;;;;;;;8.20;7.40;;;;;;;;;;5101729;28;20744;-65
2022/07/23 11:48:20;;;;;;;8.65;6.82;;;;;;;;;;5105501;28;20215;-65
2022/07/23 11:50:48;;;;;;;6.93;6.32;;;;;;;;;;5102020;28;20259;-65
2022/07/23 11:53:33;;;;;;;7.22;6.63;;;;;;;;;;5107015;28;20718;-65
2022/07/23 11:56:07;;;;;;;7.10;6.45;;;;;;;;;;5107181;28;20219;-65
2022/07/23 11:58:35;;;;;;;7.30;6.70;;;;;;;;;;5096207;27;20198;-65
2022/07/23 12:01:03;;;;;;;7.15;6.55;;;;;;;;;;5109279;27;22565;-65
2022/07/23 12:03:30;;;;;;;7.18;6.57;;;;;;;;;;5111038;28;20280;-65
2022/07/23 12:05:59;;;;;;;7.85;7.13;;;;;;;;;;5102239;28;20224;-66
2022/07/23 12:08:26;;;;;;;8.27;7.32;;;;;;;;;;5103762;28;20260;-65
2022/07/23 12:10:54;;;;;;;7.80;7.10;;;;;;;;;;5104333;28;20982;-66
2022/07/23 12:13:22;;;;;;;6.93;6.43;;;;;;;;;;5116462;27;20280;-66
2022/07/23 12:15:52;;;;;;;7.75;7.05;;;;;;;;;;5113229;27;20324;-66
2022/07/23 12:18:20;;;;;;;7.00;6.40;;;;;;;;;;5130985;27;20207;-66
2022/07/23 12:20:49;;;;;;;7.30;6.68;;;;;;;;;;5112723;27;20199;-66
2022/07/23 12:23:18;;;;;;;6.85;6.30;;;;;;;;;;5105485;27;20196;-66
2022/07/23 12:25:47;;;;;;;7.15;6.65;;;;;;;;;;5136993;27;20323;-66
2022/07/23 12:28:15;;;;;;;7.82;6.97;;;;;;;;;;5102026;27;20690;-66
2022/07/23 12:30:42;;;;;;;7.85;7.13;;;;;;;;;;5107187;27;20203;-66
2022/07/23 12:33:11;;;;;;;7.43;6.82;;;;;;;;;;5105824;27;20278;-66
2022/07/23 12:35:44;;;;;;;7.82;7.13;;;;;;;;;;5105072;27;20222;-66
2022/07/23 12:38:12;;;;;;;7.72;7.00;;;;;;;;;;5118065;27;20207;-66
2022/07/23 12:40:48;;;;;;;6.97;6.38;;;;;;;;;;5103946;27;20203;-66
2022/07/23 12:43:20;;;;;;;6.93;6.32;;;;;;;;;;5108930;27;20207;-65
2022/07/23 12:45:54;;;;;;;7.45;6.75;;;;;;;;;;5097343;27;20219;-66
2022/07/23 12:48:33;;;;;;;7.35;6.72;;;;;;;;;;5109203;27;20210;-66
2022/07/23 12:51:08;;;;;;;7.60;7.00;;;;;;;;;;5112632;27;20204;-66
2022/07/23 12:53:41;;;;;;;7.53;6.93;;;;;;;;;;5107857;27;20222;-66
2022/07/23 12:56:19;;;;;;;9.02;7.03;;;;;;;;;;5112091;27;20211;-66
2022/07/23 12:58:51;;;;;;;7.60;6.88;;;;;;;;;;5127669;27;20720;-66
2022/07/23 13:01:21;;;;;;;7.07;6.57;;;;;;;;;;5110894;27;20666;-66
2022/07/23 13:04:10;;;;;;;7.00;6.40;;;;;;;;;;5103615;27;20214;-66
2022/07/23 13:06:49;;;;;;;8.40;6.80;;;;;;;;;;5105897;27;20231;-66
2022/07/23 13:09:21;;;;;;;7.55;6.80;;;;;;;;;;5114840;27;20248;-66
2022/07/23 13:11:49;;;;;;;8.15;7.45;;;;;;;;;;5106862;27;20223;-66
2022/07/23 13:14:17;;;;;;;7.50;6.90;;;;;;;;;;5118116;27;20200;-66
2022/07/23 13:16:48;;;;;;;6.93;6.30;;;;;;;;;;5104526;27;20253;-66
2022/07/23 13:19:16;;;;;;;7.30;6.68;;;;;;;;;;5109284;27;20278;-66
2022/07/23 13:21:45;;;;;;;7.22;6.63;;;;;;;;;;5107358;27;20689;-66
2022/07/23 13:24:13;;;;;;;7.60;6.97;;;;;;;;;;5103896;27;20569;-66
2022/07/23 13:26:41;;;;;;;6.65;6.13;;;;;;;;;;5125000;27;20709;-66
2022/07/23 13:29:10;;;;;;;6.72;6.18;;;;;;;;;;5107370;27;20260;-66
2022/07/23 13:31:38;;;;;;;6.72;6.13;;;;;;;;;;5106321;27;20284;-66
2022/07/23 13:34:07;;;;;;;8.15;7.03;;;;;;;;;;5103016;27;20306;-65
2022/07/23 13:36:34;;;;;;;6.85;6.25;;;;;;;;;;5104011;27;20252;-66
2022/07/23 13:39:02;;;;;;;6.78;6.15;;;;;;;;;;5103492;27;20207;-67
2022/07/23 13:41:31;;;;;;;6.93;6.32;;;;;;;;;;5086177;27;20200;-67
2022/07/23 13:43:58;;;;;;;7.00;6.28;;;;;;;;;;5101007;27;20195;-67
2022/07/23 13:46:26;;;;;;;6.70;6.20;;;;;;;;;;5120271;27;20296;-67
2022/07/23 13:48:54;;;;;;;6.70;6.20;;;;;;;;;;5100761;27;20223;-67
2022/07/23 13:51:21;;;;;;;7.25;6.65;;;;;;;;;;5101590;27;20203;-67
2022/07/23 13:53:51;;;;;;;7.20;6.50;;;;;;;;;;5106702;27;20665;-66
2022/07/23 13:56:19;;;;;;;6.93;6.28;;;;;;;;;;5099602;27;20730;-66
2022/07/23 13:58:47;;;;;;;7.53;6.47;;;;;;;;;;5111064;27;20200;-65
2022/07/23 14:01:15;;;;;;;7.63;7.00;;;;;;;;;;5108533;27;20203;-67
2022/07/23 14:04:02;;;;;;;7.32;6.72;;;;;;;;;;5104681;27;20199;-66
2022/07/23 14:06:31;;;;;;;7.22;6.63;;;;;;;;;;5102807;28;20237;-66
2022/07/23 14:08:59;;;;;;;7.15;6.45;;;;;;;;;;5103872;27;20204;-66
2022/07/23 14:11:28;;;;;;;8.10;7.30;;;;;;;;;;5123193;27;20574;-66
2022/07/23 14:13:58;;;;;;;7.32;6.65;;;;;;;;;;5102997;27;20216;-66
2022/07/23 14:16:25;;;;;;;7.35;6.75;;;;;;;;;;5105240;27;20454;-66
2022/07/23 14:18:53;;;;;;;7.45;6.68;;;;;;;;;;5120454;27;20208;-66
2022/07/23 14:21:21;;;;;;;7.43;6.80;;;;;;;;;;5107200;27;20200;-67
2022/07/23 14:23:48;;;;;;;7.10;6.53;;;;;;;;;;5103308;27;20207;-67
2022/07/23 14:26:16;;;;;;;8.15;6.03;;;;;;;;;;5103699;27;20736;-66
2022/07/23 14:28:43;;;;;;;7.10;6.50;;;;;;;;;;5105206;27;20199;-66
2022/07/23 14:31:16;;;;;;;8.93;8.02;;;;;;;;;;5107743;27;20211;-66
2022/07/23 14:33:49;;;;;;;8.13;6.47;;;;;;;;;;5104077;27;20310;-66
2022/07/23 14:36:17;;;;;;;6.75;6.18;;;;;;;;;;5118792;27;20228;-66
2022/07/23 14:38:45;;;;;;;7.10;6.50;;;;;;;;;;5102720;28;20222;-67
2022/07/23 14:41:12;;;;;;;6.93;6.20;;;;;;;;;;5098527;27;20247;-66
2022/07/23 14:43:42;;;;;;;7.00;6.30;;;;;;;;;;5104487;27;20215;-65
2022/07/23 14:46:11;;;;;;;7.13;6.53;;;;;;;;;;5104119;28;20239;-66
2022/07/23 14:48:38;;;;;;;6.53;6.03;;;;;;;;;;5103774;27;20203;-65
2022/07/23 14:51:06;;;;;;;6.28;5.85;;;;;;;;;;5101305;27;20943;-65
2022/07/23 14:53:33;;;;;;;7.07;6.40;;;;;;;;;;5100062;27;20247;-66